<?xml version="1.0" encoding="UTF-8" standalone="no" ?>
<gpx xmlns="http://www.topografix.com/GPX/1/1" xmlns:xsi="http://www.w3.org/2001/XMLSchema-instance" xsi:schemaLocation="http://www.topografix.com/GPX/1/1 http://www.topografix.com/GPX/1/1/gpx.xsd" version="1.1" creator="VisuGPX - https://www.visugpx.com">
  <metadata>
    <name>2022-03-31-46-trespoux-le colombier </name>
    <desc><![CDATA[Randonnée d'environ 11 km pour 160 m de dénivelé positif. belle balade dans la campagne et en sous bois]]></desc>
  </metadata>
  <trk>
    <name><![CDATA[14397090-trespoux-le colombier ]]></name>
    <trkseg>
      <trkpt lat="44.4147" lon="1.3711">
        <ele>337</ele>
        <time>2022-03-29T07:10:13Z</time>
      </trkpt>
      <trkpt lat="44.41459" lon="1.37094">
        <ele>337</ele>
        <time>2022-03-29T07:10:34Z</time>
      </trkpt>
      <trkpt lat="44.41462" lon="1.37079">
        <ele>336</ele>
        <time>2022-03-29T07:10:49Z</time>
      </trkpt>
      <trkpt lat="44.41481" lon="1.3703">
        <ele>334</ele>
        <time>2022-03-29T07:11:42Z</time>
      </trkpt>
      <trkpt lat="44.41467" lon="1.37008">
        <ele>333</ele>
        <time>2022-03-29T07:12:10Z</time>
      </trkpt>
      <trkpt lat="44.41456" lon="1.36976">
        <ele>332</ele>
        <time>2022-03-29T07:12:44Z</time>
      </trkpt>
      <trkpt lat="44.41465" lon="1.36959">
        <ele>331</ele>
        <time>2022-03-29T07:13:04Z</time>
      </trkpt>
      <trkpt lat="44.4147" lon="1.36941">
        <ele>330</ele>
        <time>2022-03-29T07:13:23Z</time>
      </trkpt>
      <trkpt lat="44.41477" lon="1.36914">
        <ele>328</ele>
        <time>2022-03-29T07:13:50Z</time>
      </trkpt>
      <trkpt lat="44.41483" lon="1.36874">
        <ele>325</ele>
        <time>2022-03-29T07:14:29Z</time>
      </trkpt>
      <trkpt lat="44.41482" lon="1.36827">
        <ele>322</ele>
        <time>2022-03-29T07:15:14Z</time>
      </trkpt>
      <trkpt lat="44.41484" lon="1.3677">
        <ele>319</ele>
        <time>2022-03-29T07:16:08Z</time>
      </trkpt>
      <trkpt lat="44.4149" lon="1.36721">
        <ele>318</ele>
        <time>2022-03-29T07:16:56Z</time>
      </trkpt>
      <trkpt lat="44.41471" lon="1.36657">
        <ele>320</ele>
        <time>2022-03-29T07:18:02Z</time>
      </trkpt>
      <trkpt lat="44.4146" lon="1.36613">
        <ele>319</ele>
        <time>2022-03-29T07:18:46Z</time>
      </trkpt>
      <trkpt lat="44.41432" lon="1.36513">
        <ele>320</ele>
        <time>2022-03-29T07:20:29Z</time>
      </trkpt>
      <trkpt lat="44.41414" lon="1.36418">
        <ele>322</ele>
        <time>2022-03-29T07:22:02Z</time>
      </trkpt>
      <trkpt lat="44.41394" lon="1.36322">
        <ele>325</ele>
        <time>2022-03-29T07:23:38Z</time>
      </trkpt>
      <trkpt lat="44.41519" lon="1.36242">
        <ele>318</ele>
        <time>2022-03-29T07:26:41Z</time>
      </trkpt>
      <trkpt lat="44.41492" lon="1.362">
        <ele>316</ele>
        <time>2022-03-29T07:27:35Z</time>
      </trkpt>
      <trkpt lat="44.41444" lon="1.36187">
        <ele>316</ele>
        <time>2022-03-29T07:28:40Z</time>
      </trkpt>
      <trkpt lat="44.41421" lon="1.36183">
        <ele>316</ele>
        <time>2022-03-29T07:29:11Z</time>
      </trkpt>
      <trkpt lat="44.41403" lon="1.36157">
        <ele>315</ele>
        <time>2022-03-29T07:29:45Z</time>
      </trkpt>
      <trkpt lat="44.41401" lon="1.36113">
        <ele>314</ele>
        <time>2022-03-29T07:30:27Z</time>
      </trkpt>
      <trkpt lat="44.41373" lon="1.36118">
        <ele>314</ele>
        <time>2022-03-29T07:31:05Z</time>
      </trkpt>
      <trkpt lat="44.4139" lon="1.36079">
        <ele>312</ele>
        <time>2022-03-29T07:31:49Z</time>
      </trkpt>
      <trkpt lat="44.41395" lon="1.36061">
        <ele>310</ele>
        <time>2022-03-29T07:32:07Z</time>
      </trkpt>
      <trkpt lat="44.41374" lon="1.36052">
        <ele>307</ele>
        <time>2022-03-29T07:32:36Z</time>
      </trkpt>
      <trkpt lat="44.41344" lon="1.36074">
        <ele>309</ele>
        <time>2022-03-29T07:33:22Z</time>
      </trkpt>
      <trkpt lat="44.41236" lon="1.36103">
        <ele>299</ele>
        <time>2022-03-29T07:35:48Z</time>
      </trkpt>
      <trkpt lat="44.41206" lon="1.36137">
        <ele>298</ele>
        <time>2022-03-29T07:36:40Z</time>
      </trkpt>
      <trkpt lat="44.41193" lon="1.36164">
        <ele>299</ele>
        <time>2022-03-29T07:37:11Z</time>
      </trkpt>
      <trkpt lat="44.41121" lon="1.36175">
        <ele>293</ele>
        <time>2022-03-29T07:38:48Z</time>
      </trkpt>
      <trkpt lat="44.41173" lon="1.36057">
        <ele>284</ele>
        <time>2022-03-29T07:41:00Z</time>
      </trkpt>
      <trkpt lat="44.41255" lon="1.35974">
        <ele>276</ele>
        <time>2022-03-29T07:43:15Z</time>
      </trkpt>
      <trkpt lat="44.41344" lon="1.35859">
        <ele>266</ele>
        <time>2022-03-29T07:45:56Z</time>
      </trkpt>
      <trkpt lat="44.41241" lon="1.35757">
        <ele>273</ele>
        <time>2022-03-29T07:48:45Z</time>
      </trkpt>
      <trkpt lat="44.41138" lon="1.35628">
        <ele>284</ele>
        <time>2022-03-29T07:51:49Z</time>
      </trkpt>
      <trkpt lat="44.41111" lon="1.35494">
        <ele>291</ele>
        <time>2022-03-29T07:54:02Z</time>
      </trkpt>
      <trkpt lat="44.41045" lon="1.35416">
        <ele>296</ele>
        <time>2022-03-29T07:55:57Z</time>
      </trkpt>
      <trkpt lat="44.40967" lon="1.35408">
        <ele>303</ele>
        <time>2022-03-29T07:57:42Z</time>
      </trkpt>
      <trkpt lat="44.40927" lon="1.35366">
        <ele>308</ele>
        <time>2022-03-29T07:58:48Z</time>
      </trkpt>
      <trkpt lat="44.40866" lon="1.35397">
        <ele>308</ele>
        <time>2022-03-29T08:00:15Z</time>
      </trkpt>
      <trkpt lat="44.40845" lon="1.3532">
        <ele>308</ele>
        <time>2022-03-29T08:01:33Z</time>
      </trkpt>
      <trkpt lat="44.40868" lon="1.35312">
        <ele>309</ele>
        <time>2022-03-29T08:02:05Z</time>
      </trkpt>
      <trkpt lat="44.41045" lon="1.3523">
        <ele>315</ele>
        <time>2022-03-29T08:06:14Z</time>
      </trkpt>
      <trkpt lat="44.41047" lon="1.35191">
        <ele>317</ele>
        <time>2022-03-29T08:06:51Z</time>
      </trkpt>
      <trkpt lat="44.40977" lon="1.35182">
        <ele>315</ele>
        <time>2022-03-29T08:08:25Z</time>
      </trkpt>
      <trkpt lat="44.40867" lon="1.3517">
        <ele>308</ele>
        <time>2022-03-29T08:10:52Z</time>
      </trkpt>
      <trkpt lat="44.40825" lon="1.35093">
        <ele>298</ele>
        <time>2022-03-29T08:12:25Z</time>
      </trkpt>
      <trkpt lat="44.40788" lon="1.35044">
        <ele>297</ele>
        <time>2022-03-29T08:13:32Z</time>
      </trkpt>
      <trkpt lat="44.40736" lon="1.34999">
        <ele>296</ele>
        <time>2022-03-29T08:14:54Z</time>
      </trkpt>
      <trkpt lat="44.4073" lon="1.34925">
        <ele>297</ele>
        <time>2022-03-29T08:16:05Z</time>
      </trkpt>
      <trkpt lat="44.40666" lon="1.34598">
        <ele>293</ele>
        <time>2022-03-29T08:21:28Z</time>
      </trkpt>
      <trkpt lat="44.40734" lon="1.34473">
        <ele>294</ele>
        <time>2022-03-29T08:23:58Z</time>
      </trkpt>
      <trkpt lat="44.40765" lon="1.34394">
        <ele>291</ele>
        <time>2022-03-29T08:25:24Z</time>
      </trkpt>
      <trkpt lat="44.40794" lon="1.34322">
        <ele>293</ele>
        <time>2022-03-29T08:26:43Z</time>
      </trkpt>
      <trkpt lat="44.40852" lon="1.34195">
        <ele>290</ele>
        <time>2022-03-29T08:29:07Z</time>
      </trkpt>
      <trkpt lat="44.40932" lon="1.341">
        <ele>284</ele>
        <time>2022-03-29T08:31:26Z</time>
      </trkpt>
      <trkpt lat="44.41014" lon="1.34016">
        <ele>275</ele>
        <time>2022-03-29T08:33:42Z</time>
      </trkpt>
      <trkpt lat="44.41131" lon="1.33927">
        <ele>267</ele>
        <time>2022-03-29T08:36:40Z</time>
      </trkpt>
      <trkpt lat="44.41248" lon="1.33901">
        <ele>262</ele>
        <time>2022-03-29T08:39:18Z</time>
      </trkpt>
      <trkpt lat="44.41352" lon="1.33827">
        <ele>251</ele>
        <time>2022-03-29T08:41:54Z</time>
      </trkpt>
      <trkpt lat="44.41421" lon="1.3384">
        <ele>249</ele>
        <time>2022-03-29T08:43:26Z</time>
      </trkpt>
      <trkpt lat="44.41567" lon="1.33838">
        <ele>243</ele>
        <time>2022-03-29T08:46:41Z</time>
      </trkpt>
      <trkpt lat="44.41698" lon="1.33841">
        <ele>239</ele>
        <time>2022-03-29T08:49:36Z</time>
      </trkpt>
      <trkpt lat="44.4176" lon="1.33835">
        <ele>236</ele>
        <time>2022-03-29T08:50:59Z</time>
      </trkpt>
      <trkpt lat="44.41911" lon="1.33761">
        <ele>227</ele>
        <time>2022-03-29T08:54:33Z</time>
      </trkpt>
      <trkpt lat="44.42002" lon="1.33716">
        <ele>217</ele>
        <time>2022-03-29T08:56:41Z</time>
      </trkpt>
      <trkpt lat="44.42015" lon="1.33622">
        <ele>223</ele>
        <time>2022-03-29T08:58:13Z</time>
      </trkpt>
      <trkpt lat="44.41973" lon="1.33508">
        <ele>227</ele>
        <time>2022-03-29T09:00:15Z</time>
      </trkpt>
      <trkpt lat="44.419" lon="1.33396">
        <ele>232</ele>
        <time>2022-03-29T09:02:39Z</time>
      </trkpt>
      <trkpt lat="44.418" lon="1.33345">
        <ele>233</ele>
        <time>2022-03-29T09:05:01Z</time>
      </trkpt>
      <trkpt lat="44.41649" lon="1.33452">
        <ele>251</ele>
        <time>2022-03-29T09:08:47Z</time>
      </trkpt>
      <trkpt lat="44.41511" lon="1.33381">
        <ele>261</ele>
        <time>2022-03-29T09:12:03Z</time>
      </trkpt>
      <trkpt lat="44.41334" lon="1.33261">
        <ele>276</ele>
        <time>2022-03-29T09:16:26Z</time>
      </trkpt>
      <trkpt lat="44.41141" lon="1.33257">
        <ele>295</ele>
        <time>2022-03-29T09:20:43Z</time>
      </trkpt>
      <trkpt lat="44.41075" lon="1.33299">
        <ele>301</ele>
        <time>2022-03-29T09:22:20Z</time>
      </trkpt>
      <trkpt lat="44.41033" lon="1.33357">
        <ele>303</ele>
        <time>2022-03-29T09:23:39Z</time>
      </trkpt>
      <trkpt lat="44.40939" lon="1.33549">
        <ele>308</ele>
        <time>2022-03-29T09:27:21Z</time>
      </trkpt>
      <trkpt lat="44.40828" lon="1.33625">
        <ele>313</ele>
        <time>2022-03-29T09:30:06Z</time>
      </trkpt>
      <trkpt lat="44.40782" lon="1.33709">
        <ele>316</ele>
        <time>2022-03-29T09:31:47Z</time>
      </trkpt>
      <trkpt lat="44.40864" lon="1.3377">
        <ele>318</ele>
        <time>2022-03-29T09:33:51Z</time>
      </trkpt>
      <trkpt lat="44.4088" lon="1.33811">
        <ele>319</ele>
        <time>2022-03-29T09:34:35Z</time>
      </trkpt>
      <trkpt lat="44.40744" lon="1.34001">
        <ele>325</ele>
        <time>2022-03-29T09:38:51Z</time>
      </trkpt>
      <trkpt lat="44.40711" lon="1.3412">
        <ele>318</ele>
        <time>2022-03-29T09:40:53Z</time>
      </trkpt>
      <trkpt lat="44.40689" lon="1.34201">
        <ele>311</ele>
        <time>2022-03-29T09:42:16Z</time>
      </trkpt>
      <trkpt lat="44.40656" lon="1.34268">
        <ele>306</ele>
        <time>2022-03-29T09:43:33Z</time>
      </trkpt>
      <trkpt lat="44.40649" lon="1.34324">
        <ele>303</ele>
        <time>2022-03-29T09:44:28Z</time>
      </trkpt>
      <trkpt lat="44.4061" lon="1.34371">
        <ele>306</ele>
        <time>2022-03-29T09:45:36Z</time>
      </trkpt>
      <trkpt lat="44.40569" lon="1.3447">
        <ele>306</ele>
        <time>2022-03-29T09:47:25Z</time>
      </trkpt>
      <trkpt lat="44.40516" lon="1.34514">
        <ele>313</ele>
        <time>2022-03-29T09:48:48Z</time>
      </trkpt>
      <trkpt lat="44.40484" lon="1.34578">
        <ele>312</ele>
        <time>2022-03-29T09:50:02Z</time>
      </trkpt>
      <trkpt lat="44.40466" lon="1.34627">
        <ele>310</ele>
        <time>2022-03-29T09:50:55Z</time>
      </trkpt>
      <trkpt lat="44.4045" lon="1.34661">
        <ele>311</ele>
        <time>2022-03-29T09:51:33Z</time>
      </trkpt>
      <trkpt lat="44.40455" lon="1.34712">
        <ele>309</ele>
        <time>2022-03-29T09:52:22Z</time>
      </trkpt>
      <trkpt lat="44.40493" lon="1.34771">
        <ele>304</ele>
        <time>2022-03-29T09:53:38Z</time>
      </trkpt>
      <trkpt lat="44.4053" lon="1.34811">
        <ele>303</ele>
        <time>2022-03-29T09:54:41Z</time>
      </trkpt>
      <trkpt lat="44.40579" lon="1.34889">
        <ele>302</ele>
        <time>2022-03-29T09:56:20Z</time>
      </trkpt>
      <trkpt lat="44.40584" lon="1.3491">
        <ele>301</ele>
        <time>2022-03-29T09:56:41Z</time>
      </trkpt>
      <trkpt lat="44.40628" lon="1.35055">
        <ele>303</ele>
        <time>2022-03-29T09:59:11Z</time>
      </trkpt>
      <trkpt lat="44.40661" lon="1.35158">
        <ele>304</ele>
        <time>2022-03-29T10:00:59Z</time>
      </trkpt>
      <trkpt lat="44.40686" lon="1.35166">
        <ele>304</ele>
        <time>2022-03-29T10:01:33Z</time>
      </trkpt>
      <trkpt lat="44.40724" lon="1.35193">
        <ele>303</ele>
        <time>2022-03-29T10:02:30Z</time>
      </trkpt>
      <trkpt lat="44.40783" lon="1.3525">
        <ele>304</ele>
        <time>2022-03-29T10:04:05Z</time>
      </trkpt>
      <trkpt lat="44.40807" lon="1.35284">
        <ele>306</ele>
        <time>2022-03-29T10:04:51Z</time>
      </trkpt>
      <trkpt lat="44.4083" lon="1.35346">
        <ele>308</ele>
        <time>2022-03-29T10:05:57Z</time>
      </trkpt>
      <trkpt lat="44.40865" lon="1.35471">
        <ele>307</ele>
        <time>2022-03-29T10:08:05Z</time>
      </trkpt>
      <trkpt lat="44.40871" lon="1.35536">
        <ele>309</ele>
        <time>2022-03-29T10:09:08Z</time>
      </trkpt>
      <trkpt lat="44.4087" lon="1.3556">
        <ele>310</ele>
        <time>2022-03-29T10:09:31Z</time>
      </trkpt>
      <trkpt lat="44.40869" lon="1.35561">
        <ele>310</ele>
        <time>2022-03-29T10:09:32Z</time>
      </trkpt>
      <trkpt lat="44.40889" lon="1.35565">
        <ele>312</ele>
        <time>2022-03-29T10:09:59Z</time>
      </trkpt>
      <trkpt lat="44.40866" lon="1.3568">
        <ele>319</ele>
        <time>2022-03-29T10:11:53Z</time>
      </trkpt>
      <trkpt lat="44.40858" lon="1.35771">
        <ele>321</ele>
        <time>2022-03-29T10:13:21Z</time>
      </trkpt>
      <trkpt lat="44.40856" lon="1.35862">
        <ele>320</ele>
        <time>2022-03-29T10:14:47Z</time>
      </trkpt>
      <trkpt lat="44.40857" lon="1.35863">
        <ele>320</ele>
        <time>2022-03-29T10:14:49Z</time>
      </trkpt>
      <trkpt lat="44.40852" lon="1.35939">
        <ele>316</ele>
        <time>2022-03-29T10:16:02Z</time>
      </trkpt>
      <trkpt lat="44.40898" lon="1.36078">
        <ele>316</ele>
        <time>2022-03-29T10:18:28Z</time>
      </trkpt>
      <trkpt lat="44.40918" lon="1.36164">
        <ele>315</ele>
        <time>2022-03-29T10:19:54Z</time>
      </trkpt>
      <trkpt lat="44.40935" lon="1.36349">
        <ele>313</ele>
        <time>2022-03-29T10:22:52Z</time>
      </trkpt>
      <trkpt lat="44.40995" lon="1.36418">
        <ele>317</ele>
        <time>2022-03-29T10:24:36Z</time>
      </trkpt>
      <trkpt lat="44.41075" lon="1.36466">
        <ele>323</ele>
        <time>2022-03-29T10:26:32Z</time>
      </trkpt>
      <trkpt lat="44.41112" lon="1.36411">
        <ele>323</ele>
        <time>2022-03-29T10:27:44Z</time>
      </trkpt>
      <trkpt lat="44.41172" lon="1.36433">
        <ele>325</ele>
        <time>2022-03-29T10:29:06Z</time>
      </trkpt>
      <trkpt lat="44.41187" lon="1.36421">
        <ele>325</ele>
        <time>2022-03-29T10:29:30Z</time>
      </trkpt>
      <trkpt lat="44.41246" lon="1.3648">
        <ele>326</ele>
        <time>2022-03-29T10:31:06Z</time>
      </trkpt>
      <trkpt lat="44.4129" lon="1.36441">
        <ele>326</ele>
        <time>2022-03-29T10:32:16Z</time>
      </trkpt>
      <trkpt lat="44.41313" lon="1.36507">
        <ele>327</ele>
        <time>2022-03-29T10:33:26Z</time>
      </trkpt>
      <trkpt lat="44.41331" lon="1.36634">
        <ele>326</ele>
        <time>2022-03-29T10:35:29Z</time>
      </trkpt>
      <trkpt lat="44.41313" lon="1.36722">
        <ele>321</ele>
        <time>2022-03-29T10:36:56Z</time>
      </trkpt>
      <trkpt lat="44.41351" lon="1.3685">
        <ele>325</ele>
        <time>2022-03-29T10:39:09Z</time>
      </trkpt>
      <trkpt lat="44.41385" lon="1.36999">
        <ele>329</ele>
        <time>2022-03-29T10:41:38Z</time>
      </trkpt>
      <trkpt lat="44.41396" lon="1.37104">
        <ele>335</ele>
        <time>2022-03-29T10:43:19Z</time>
      </trkpt>
      <trkpt lat="44.41449" lon="1.37091">
        <ele>336</ele>
        <time>2022-03-29T10:44:31Z</time>
      </trkpt>
      <trkpt lat="44.41472" lon="1.37116">
        <ele>338</ele>
        <time>2022-03-29T10:45:10Z</time>
      </trkpt>
    </trkseg>
  </trk>
</gpx>